Fu Ning Wan — VRDN9 — position and weather

sailwx.info

Track history (hours):
 
Tides and Currents Weather Stations Pressure Air Temp Water Temp Dewpoint Dewpoint Depression Visibility Wind Speed Wind Dir Waves Ship Positions

Fu Ning Wan

Last reported at 2015-Mar-06 05:16 UTC. Time now 2015-Mar-06 06:03 UTC.
Position N 32°01' E 120°45'.

Length 107 m; draft 5 m.

Type: Tanker. MMSI: 477003600.

Date/timePositionNaut miles runAvg speedWind from/ knotsBaromVisibWave heightAir tempDewpointWater temp
2015-Mar-06 05:16N 32°01' E 120°45'1312.6
2015-Mar-06 04:15N 32°04' E 120°31'1012.4
2015-Mar-06 03:28N 31°59' E 120°21'1212.9
2015-Mar-06 02:33N 31°56' E 120°07'1312.4
2015-Mar-06 01:32N 32°04' E 119°56'  
2015-Mar-02 15:33N 32°04' E 119°56'9 8.6
2015-Mar-02 14:33N 31°58' E 120°04'9 8.7
2015-Mar-02 13:33N 31°56' E 120°14'9 9.0
2015-Mar-02 12:33N 32°01' E 120°23'9 8.7
2015-Mar-02 11:33N 32°04' E 120°32'9 8.8
2015-Mar-02 10:32N 32°00' E 120°42'9 8.9
2015-Mar-02 09:33N 31°57' E 120°52'1010.2
2015-Mar-02 08:34N 31°48' E 120°56'10 9.9
2015-Mar-02 07:33N 31°44' E 121°07'1110.8
2015-Mar-02 06:34N 31°37' E 121°16'1111.5
2015-Mar-02 05:34N 31°29' E 121°26'8 8.3
2015-Mar-02 04:34N 31°24' E 121°34'9 9.2
2015-Mar-02 03:33N 31°19' E 121°43'1312.7
2015-Mar-02 02:33N 31°09' E 121°53'1212.1
2015-Mar-02 01:33N 31°04' E 122°05'1010.3
2015-Mar-02 00:33N 31°03' E 122°17'  
Track history (hours):
 
Tides and Currents Weather Stations Pressure Air Temp Water Temp Dewpoint Dewpoint Depression Visibility Wind Speed Wind Dir Waves Ship Positions

Fu Ning Wan

Last reported at 2015-Mar-06 05:16 UTC. Time now 2015-Mar-06 06:03 UTC.
Position N 32°01' E 120°45'.

Length 107 m; draft 5 m.

Type: Tanker. MMSI: 477003600.

Date/timePositionNaut miles runAvg speedWind from/ knotsBaromVisibWave heightAir tempDewpointWater temp
2015-Mar-06 05:16N 32°01' E 120°45'1312.6
2015-Mar-06 04:15N 32°04' E 120°31'1012.4
2015-Mar-06 03:28N 31°59' E 120°21'1212.9
2015-Mar-06 02:33N 31°56' E 120°07'1312.4
2015-Mar-06 01:32N 32°04' E 119°56'  
2015-Mar-02 15:33N 32°04' E 119°56'9 8.6
2015-Mar-02 14:33N 31°58' E 120°04'9 8.7
2015-Mar-02 13:33N 31°56' E 120°14'9 9.0
2015-Mar-02 12:33N 32°01' E 120°23'9 8.7
2015-Mar-02 11:33N 32°04' E 120°32'9 8.8
2015-Mar-02 10:32N 32°00' E 120°42'9 8.9
2015-Mar-02 09:33N 31°57' E 120°52'1010.2
2015-Mar-02 08:34N 31°48' E 120°56'10 9.9
2015-Mar-02 07:33N 31°44' E 121°07'1110.8
2015-Mar-02 06:34N 31°37' E 121°16'1111.5
2015-Mar-02 05:34N 31°29' E 121°26'8 8.3
2015-Mar-02 04:34N 31°24' E 121°34'9 9.2
2015-Mar-02 03:33N 31°19' E 121°43'1312.7
2015-Mar-02 02:33N 31°09' E 121°53'1212.1
2015-Mar-02 01:33N 31°04' E 122°05'1010.3
2015-Mar-02 00:33N 31°03' E 122°17'  

Dump ship's entire track history